Search for airport 
image banner adimage banner ad
image banner ad

DNFD - Forcados/Forcados Terminal

Located in Forcados Terminal, Nigeria

ICAO - , IATA -

Data provided by Airmate  

General information

Coordinates: N5°21'18" E5°20'56"
Elevation is 11 feet MSL.
 
Rated:
View ratings: [VIEW]


View others Airports in Delta

Operational data

Open for public use
Current time UTC:
Current local time:
Weather at : DNSU - Osubi/Osubi ( 59 km )
TAF: TAF DNSU 062300Z 0700/0806 VRB02KT 9999 SCT010 BECMG 0708/0710 25010KT BKN012 PROB30 TEMPO 0712/0715 BKN012 FEW020CB BECMG 0718/0720 VRB02KT SCT010
View NOTAMs / SUP AIP / TFR affecting this airport [VIEW]
Communications frequencies: [VIEW]

Runways:

RWY identifierQFULength (ft)Width (ft)SurfaceLDA (ft)
0217°316559
20197°316559

Airport contact information

Address: Forcados Terminal Nigeria

Satellite view of DNFD